Rena Lara, MS (38767)

1:13 PM CST on January 29, 2015 (GMT -0600)
Clarksdale | Change Station
CLOSE
Current Station
Personal Weather Station
Location: Clarksdale, MS
Elevation: 164 ft
Nearby Weather Stations

Elev 164 ft 34.10 °N, 90.61 °W | Updated 2 seconds ago

Clear
Clear
66.5 °F
Feels Like 66.5 °F
N
13.0
Wind Variable Wind from West
Gusts 16.0 mph

Today
High -- | Low -- °F
--% Chance of Precip.
Yesterday
High -- | Low -- °F
Precip. -- in
7:02 AM 5:30 PM
Waxing Gibbous, 76% visible
Pressure 30.12 in
Visibility 10.0 miles
Clouds Clear
Dew Point 52 °F
Humidity 59%
Rainfall 0.00 in
Snow Depth Not available.
UV 4 out of 12
Pollen 3.00 out of 12
Air Quality Not available.
Flu Activity Not available.
METAR KCKM 291855Z AUTO 29010KT 10SM CLR 18/09 A3012 RMK AO1

More Conditions Fewer Conditions

Pressure 30.12 in
Visibility 10.0 miles
Clouds Clear
Dew Point 52 °F
Humidity 59%
Rainfall 0.00 in
Snow Depth Not available.
UV 4 out of 12
Pollen 3.00 out of 12
Air Quality Not available.
Flu Activity Not available.
METAR KCKM 291855Z AUTO 29010KT 10SM CLR 18/09 A3012 RMK AO1

More Conditions Fewer Conditions

10-Day Weather Forecast

Almanac

Astronomy

Jan. 29, 2015 Rise Set
Actual Time
Civil Twilight
Nautical Twilight
Astronomical Twilight
Moon
Length of Visible Light
Length of Day
Tomorrow will be .
, % of the Moon is Illuminated

Today's Extremes

State Highs State Lows

Community

WunderPhotos

Upload Photos

1,791,561 photos uploaded!

WunderBlogs® & News

Nearby

Air Quality

  Air Quality AQ Index Pollutant
Not available.

Snow Depth

Station Depth Elevation

Earthquake Activity

City Distance Mag. Time & Date
Minimum magnitude displayed is 2.5.

Coastal Water Temperatures

Place Temperature

Nearby Weather Stations